createdAt,value
2022-09-04T00:02:42.319Z,57.32
2022-09-04T00:08:03.039Z,57.69
2022-09-04T00:13:30.965Z,57.37
2022-09-04T00:18:38.355Z,57.67
2022-09-04T00:23:55.883Z,58.01
2022-09-04T00:29:06.823Z,58.16
2022-09-04T00:34:23.827Z,58.26
2022-09-04T00:39:37.570Z,58.38
2022-09-04T00:45:01.984Z,58.40
2022-09-04T00:50:07.339Z,58.36
2022-09-04T00:55:14.845Z,58.13
2022-09-04T01:00:22.122Z,58.34
2022-09-04T01:05:36.238Z,58.71
2022-09-04T01:10:51.584Z,58.83
2022-09-04T01:16:01.720Z,58.97
2022-09-04T01:21:24.346Z,59.27
2022-09-04T01:26:48.146Z,59.33
2022-09-04T01:32:01.570Z,59.08
2022-09-04T01:37:48.221Z,59.20
2022-09-04T01:43:11.341Z,59.27
2022-09-04T01:48:21.629Z,59.51
2022-09-04T01:53:32.775Z,59.57
2022-09-04T01:58:44.455Z,59.84
2022-09-04T02:03:57.934Z,59.82
2022-09-04T02:09:21.959Z,59.99
2022-09-04T02:14:40.316Z,60.04
2022-09-04T02:19:42.172Z,59.68
2022-09-04T02:25:02.530Z,59.98
2022-09-04T02:30:10.556Z,59.91
2022-09-04T02:35:24.253Z,60.17
2022-09-04T02:40:49.702Z,60.09
2022-09-04T02:46:03.297Z,60.24
2022-09-04T02:51:23.847Z,59.98
2022-09-04T02:57:09.329Z,60.04
2022-09-04T03:02:21.484Z,60.04
2022-09-04T03:07:33.263Z,60.17
2022-09-04T03:13:02.602Z,60.05
2022-09-04T03:18:31.971Z,60.10
2022-09-04T03:24:13.977Z,60.45
2022-09-04T03:29:16.304Z,60.43
2022-09-04T03:34:49.783Z,60.90
2022-09-04T03:40:10.603Z,60.88
2022-09-04T03:45:37.125Z,61.04
2022-09-04T03:50:57.472Z,60.79
2022-09-04T03:56:36.549Z,61.25
2022-09-04T04:01:41.353Z,61.03
2022-09-04T04:06:53.812Z,60.86
2022-09-04T04:12:14.666Z,60.97
2022-09-04T04:18:13.495Z,61.48
2022-09-04T04:23:34.211Z,61.44
2022-09-04T04:29:00.043Z,61.23
2022-09-04T04:34:04.659Z,61.40
2022-09-04T04:39:44.850Z,61.51
2022-09-04T04:45:30.199Z,61.69
2022-09-04T04:51:05.423Z,61.92
2022-09-04T04:56:46.265Z,61.83
2022-09-04T05:02:10.979Z,61.94
2022-09-04T05:07:37.365Z,62.27
2022-09-04T05:12:54.257Z,61.94
2022-09-04T05:18:06.705Z,61.91
2022-09-04T05:23:17.311Z,62.12
2022-09-04T05:28:40.843Z,62.10
2022-09-04T05:33:48.713Z,62.21
2022-09-04T05:38:58.070Z,61.96
2022-09-04T05:44:21.642Z,61.82
2022-09-04T05:49:32.479Z,61.98
2022-09-04T05:54:51.403Z,61.92
2022-09-04T06:00:16.306Z,62.11
2022-09-04T06:05:39.744Z,61.99
2022-09-04T06:10:59.468Z,61.82
2022-09-04T06:16:25.820Z,61.64
2022-09-04T06:22:02.286Z,61.94
2022-09-04T06:27:20.994Z,61.83
2022-09-04T06:32:37.823Z,61.61
2022-09-04T06:37:57.670Z,62.07
2022-09-04T06:43:29.633Z,62.13
2022-09-04T06:49:00.976Z,62.32
2022-09-04T06:54:26.722Z,62.22
2022-09-04T06:59:39.970Z,62.40
2022-09-04T07:05:09.968Z,62.68
2022-09-04T07:10:20.748Z,62.36
2022-09-04T07:15:31.644Z,62.38
2022-09-04T07:20:48.809Z,62.84
2022-09-04T07:26:13.773Z,62.83
2022-09-04T07:31:35.288Z,62.55
2022-09-04T07:37:23.462Z,62.78
2022-09-04T07:42:53.994Z,62.87
2022-09-04T07:48:09.501Z,62.54
2022-09-04T07:53:45.061Z,62.79
2022-09-04T07:58:55.453Z,62.83
2022-09-04T08:04:38.318Z,63.52
2022-09-04T08:09:58.733Z,63.31
2022-09-04T08:15:03.963Z,63.10
2022-09-04T08:20:24.599Z,63.31
2022-09-04T08:25:55.901Z,63.12
2022-09-04T08:31:11.435Z,62.97
2022-09-04T08:36:45.402Z,62.91
2022-09-04T08:42:06.030Z,62.53
2022-09-04T08:47:14.211Z,62.70
2022-09-04T08:52:50.892Z,62.89
2022-09-04T08:58:14.522Z,62.92
2022-09-04T09:03:56.940Z,62.76
2022-09-04T09:09:31.325Z,62.54
2022-09-04T09:14:36.469Z,62.27
2022-09-04T09:20:00.734Z,62.07
2022-09-04T09:25:14.539Z,61.73
2022-09-04T09:30:24.851Z,61.95
2022-09-04T09:35:58.110Z,61.61
2022-09-04T09:41:18.148Z,61.79
2022-09-04T09:46:41.307Z,61.69
2022-09-04T09:52:07.657Z,61.23
2022-09-04T09:57:36.652Z,60.99
2022-09-04T10:03:09.473Z,60.68
2022-09-04T10:08:35.773Z,60.66
2022-09-04T10:13:59.510Z,60.66
2022-09-04T10:19:19.734Z,60.45
2022-09-04T10:24:27.372Z,60.41
2022-09-04T10:29:48.285Z,60.57
2022-09-04T10:34:56.326Z,60.35
2022-09-04T10:40:56.161Z,59.76
2022-09-04T10:46:09.809Z,59.94
2022-09-04T10:51:49.801Z,59.68
2022-09-04T10:56:54.581Z,59.52
2022-09-04T11:02:22.500Z,59.95
2022-09-04T11:07:34.566Z,59.71
2022-09-04T11:12:51.501Z,59.55
2022-09-04T11:18:02.030Z,59.67
2022-09-04T11:23:31.306Z,59.58
2022-09-04T11:29:18.082Z,59.14
2022-09-04T11:34:20.221Z,59.21
2022-09-04T11:39:34.347Z,59.12
2022-09-04T11:44:48.137Z,58.77
2022-09-04T11:50:19.218Z,58.27
2022-09-04T11:55:40.714Z,58.47
2022-09-04T12:01:00.547Z,58.22
2022-09-04T12:06:49.532Z,57.51
2022-09-04T12:12:01.092Z,57.43
2022-09-04T12:17:10.585Z,57.33
2022-09-04T12:22:36.469Z,57.56
2022-09-04T12:27:59.459Z,57.26
2022-09-04T12:33:19.920Z,57.10
2022-09-04T12:38:47.459Z,56.64
2022-09-04T12:44:08.823Z,56.20
2022-09-04T12:49:49.113Z,56.38
2022-09-04T12:55:23.068Z,56.31
2022-09-04T13:00:40.798Z,56.60
2022-09-04T13:06:22.426Z,56.15
2022-09-04T13:11:31.238Z,55.90
2022-09-04T13:17:02.227Z,55.97
2022-09-04T13:22:24.071Z,55.68
2022-09-04T13:27:28.725Z,55.21
2022-09-04T13:32:55.871Z,55.29
2022-09-04T13:38:33.962Z,55.31
2022-09-04T13:43:49.302Z,55.33
2022-09-04T13:48:57.891Z,55.47
2022-09-04T13:54:05.252Z,55.41
2022-09-04T13:59:09.828Z,55.28
2022-09-04T14:04:26.712Z,55.61
2022-09-04T14:09:33.044Z,55.50
2022-09-04T14:15:19.528Z,54.83
2022-09-04T14:20:40.691Z,55.17
2022-09-04T14:25:57.204Z,54.93
2022-09-04T14:31:27.591Z,54.37
2022-09-04T14:36:43.157Z,54.77
2022-09-04T14:42:03.772Z,54.78
2022-09-04T14:47:27.191Z,54.64
2022-09-04T14:52:40.104Z,54.46
2022-09-04T14:57:57.803Z,54.55
2022-09-04T15:03:18.286Z,54.29
2022-09-04T15:08:39.999Z,54.40
2022-09-04T15:13:48.203Z,54.09
2022-09-04T15:19:05.152Z,54.01
2022-09-04T15:24:15.140Z,54.25
2022-09-04T15:29:27.434Z,54.43
2022-09-04T15:34:30.534Z,53.81
2022-09-04T15:39:48.642Z,53.95
2022-09-04T15:44:50.854Z,54.28
2022-09-04T15:50:08.071Z,54.00
2022-09-04T15:55:31.227Z,54.15
2022-09-04T16:00:38.781Z,54.24
2022-09-04T16:05:53.397Z,54.27
2022-09-04T16:10:58.098Z,53.92
2022-09-04T16:16:09.163Z,53.83
2022-09-04T16:21:22.514Z,54.04
2022-09-04T16:26:29.145Z,53.60
2022-09-04T16:31:35.006Z,53.55
2022-09-04T16:37:05.226Z,53.47
2022-09-04T16:42:22.980Z,53.72
2022-09-04T16:47:41.286Z,53.63
2022-09-04T16:52:46.207Z,53.82
2022-09-04T16:58:17.243Z,53.50
2022-09-04T17:03:24.876Z,53.88
2022-09-04T17:08:41.905Z,53.63
2022-09-04T17:13:58.679Z,53.82
2022-09-04T17:19:13.577Z,54.13
2022-09-04T17:29:22.447Z,53.75
2022-09-04T17:30:09.538Z,54.16
2022-09-04T17:40:44.397Z,53.80
2022-09-04T17:41:36.341Z,53.67
2022-09-04T17:47:06.886Z,53.66
2022-09-04T17:52:08.946Z,53.83
2022-09-04T17:57:51.233Z,53.73
2022-09-04T18:03:21.050Z,53.76
2022-09-04T18:08:32.943Z,53.77
2022-09-04T18:14:07.053Z,53.84
2022-09-04T18:19:15.036Z,54.17
2022-09-04T18:24:21.651Z,54.25
2022-09-04T18:32:36.315Z,53.92
2022-09-04T18:37:19.828Z,54.35
2022-09-04T18:43:18.204Z,54.23
2022-09-04T18:50:28.382Z,54.39
2022-09-04T18:51:54.967Z,54.18
2022-09-04T18:57:06.580Z,54.39
2022-09-04T19:02:30.902Z,54.36
2022-09-04T19:07:55.677Z,54.58
2022-09-04T19:13:22.507Z,54.76
2022-09-04T19:18:45.367Z,55.07
2022-09-04T19:23:58.866Z,55.04
2022-09-04T19:29:13.686Z,55.17
2022-09-04T19:34:18.370Z,55.19
2022-09-04T19:45:57.247Z,55.84
2022-09-04T19:46:11.432Z,55.78
2022-09-04T19:53:18.246Z,55.97
2022-09-04T19:56:01.475Z,56.14
2022-09-04T20:01:13.198Z,56.26
2022-09-04T20:06:36.680Z,56.99
2022-09-04T20:11:59.341Z,56.94
2022-09-04T20:17:31.102Z,57.24
2022-09-04T20:22:45.565Z,57.51
2022-09-04T20:27:54.323Z,57.34
2022-09-04T20:33:11.516Z,58.14
2022-09-04T20:38:23.334Z,57.78
2022-09-04T20:43:53.375Z,58.21
2022-09-04T20:52:50.731Z,58.43
2022-09-04T20:54:47.997Z,58.48
2022-09-04T21:03:06.794Z,58.61
2022-09-04T21:06:07.141Z,58.84
2022-09-04T21:11:38.956Z,58.63
2022-09-04T21:16:59.373Z,58.55
2022-09-04T21:22:20.202Z,58.79
2022-09-04T21:27:53.239Z,58.85
2022-09-04T21:33:27.552Z,59.07
2022-09-04T21:38:27.333Z,59.33
2022-09-04T21:44:06.297Z,59.66
2022-09-04T21:49:32.813Z,59.57
2022-09-04T21:55:58.094Z,59.91
2022-09-04T22:02:38.447Z,59.36
2022-09-04T22:08:51.134Z,60.11
2022-09-04T22:13:34.894Z,59.86
2022-09-04T22:17:43.078Z,60.58
2022-09-04T22:23:32.672Z,60.66
2022-09-04T22:29:26.675Z,60.75
2022-09-04T22:35:15.566Z,60.86
2022-09-04T22:40:22.406Z,60.64
2022-09-04T22:45:50.629Z,60.98
2022-09-04T22:50:52.422Z,60.79
2022-09-04T22:56:15.727Z,60.37
2022-09-04T23:01:36.641Z,60.47
2022-09-04T23:12:30.320Z,60.55
2022-09-04T23:13:47.726Z,60.69
2022-09-04T23:21:24.958Z,60.74
2022-09-04T23:26:48.001Z,61.35
2022-09-04T23:29:49.918Z,61.41
2022-09-04T23:35:36.727Z,61.59
2022-09-04T23:40:38.539Z,61.20
2022-09-04T23:46:01.736Z,61.68
2022-09-04T23:51:18.083Z,61.39
2022-09-04T23:56:29.874Z,61.59
